Fryeburg, ME (04037)

1:27 AM EST on December 27, 2014 (GMT -0500)
lippers domain | Change Station
CLOSE
Current Station
Personal Weather Station
Location: Fryeburg, ME
Elevation: 429 ft
Nearby Weather Stations

Elev 429 ft 44.01 °N, 70.97 °W | Updated 4 minutes ago

Clear
Clear
41.0 °F
Feels Like 41 °F
N
0.0
Wind Variable Wind from West
Gusts 8.0 mph

Today
High -- | Low -- °F
--% Chance of Precip.
Yesterday
High -- | Low -- °F
Precip. -- in
7:17 AM 4:12 PM
Waxing Crescent, 33% visible
Pressure 30.05 in
Visibility 10.0 miles
Clouds Clear
Windchill 41 °F
Dew Point 30 °F
Humidity 64%
Rainfall 0.00 in
Snow Depth Not available.
UV 0 out of 12
Pollen .10 out of 12
Air Quality Not available.
Flu Activity Not available.
METAR KIZG 270554Z AUTO 30009G17KT 260V340 10SM CLR 05/M03 A3004 RMK AO2 SLP175 T00501028 10050 21006 58014

More Conditions Fewer Conditions

Pressure 30.05 in
Visibility 10.0 miles
Clouds Clear
Windchill 41 °F
Dew Point 30 °F
Humidity 64%
Rainfall 0.00 in
Snow Depth Not available.
UV 0 out of 12
Pollen .10 out of 12
Air Quality Not available.
Flu Activity Not available.
METAR KIZG 270554Z AUTO 30009G17KT 260V340 10SM CLR 05/M03 A3004 RMK AO2 SLP175 T00501028 10050 21006 58014

More Conditions Fewer Conditions

10-Day Weather Forecast

Almanac

Astronomy

Dec. 27, 2014 Rise Set
Actual Time
Civil Twilight
Nautical Twilight
Astronomical Twilight
Moon
Length of Visible Light
Length of Day
Tomorrow will be .
, % of the Moon is Illuminated

Today's Extremes

State Highs State Lows

Community

WunderPhotos

Upload Photos

1,780,855 photos uploaded!

WunderBlogs® & News

Nearby

Air Quality

  Air Quality AQ Index Pollutant
Not available.

Snow Depth

Station Depth Elevation

Earthquake Activity

City Distance Mag. Time & Date
Minimum magnitude displayed is 2.5.

Coastal Water Temperatures

Place Temperature

Nearby Weather Stations